createdAt,value
2022-07-30T00:00:24.853Z,2.75
2022-07-30T00:02:53.147Z,2.40
2022-07-30T00:05:20.858Z,2.95
2022-07-30T00:07:47.600Z,3.10
2022-07-30T00:10:14.458Z,3.50
2022-07-30T00:12:41.487Z,2.92
2022-07-30T00:15:09.117Z,2.70
2022-07-30T00:17:35.949Z,2.60
2022-07-30T00:20:03.308Z,2.50
2022-07-30T00:22:31.339Z,2.30
2022-07-30T00:24:58.584Z,2.45
2022-07-30T00:27:25.326Z,2.38
2022-07-30T00:29:51.991Z,2.28
2022-07-30T00:32:18.693Z,1.80
2022-07-30T00:34:46.062Z,1.98
2022-07-30T00:37:12.794Z,1.98
2022-07-30T00:39:39.490Z,1.90
2022-07-30T00:42:06.214Z,1.70
2022-07-30T00:44:32.896Z,2.30
2022-07-30T00:46:59.858Z,2.08
2022-07-30T00:49:27.003Z,2.33
2022-07-30T00:51:54.049Z,2.00
2022-07-30T00:54:21.479Z,2.83
2022-07-30T00:56:48.924Z,2.17
2022-07-30T00:59:16.336Z,2.08
2022-07-30T01:01:43.253Z,1.58
2022-07-30T01:04:13.928Z,1.77
2022-07-30T01:06:40.770Z,2.40
2022-07-30T01:09:08.331Z,2.50
2022-07-30T01:11:41.351Z,2.05
2022-07-30T01:14:09.492Z,2.20
2022-07-30T01:16:38.401Z,2.47
2022-07-30T01:19:28.391Z,2.88
2022-07-30T01:22:09.800Z,2.17
2022-07-30T01:24:40.980Z,2.17
2022-07-30T01:27:09.378Z,1.75
2022-07-30T01:29:37.918Z,1.42
2022-07-30T01:32:08.870Z,1.58
2022-07-30T01:34:39.169Z,1.70
2022-07-30T01:37:10.072Z,2.33
2022-07-30T01:39:38.500Z,2.13
2022-07-30T01:42:08.462Z,2.40
2022-07-30T01:44:37.579Z,2.25
2022-07-30T01:47:05.513Z,2.08
2022-07-30T01:49:35.582Z,2.70
2022-07-30T01:54:31.874Z,2.17
2022-07-30T01:57:01.756Z,1.85
2022-07-30T01:59:31.820Z,2.33
2022-07-30T02:01:59.483Z,2.17
2022-07-30T02:04:27.336Z,2.80
2022-07-30T02:07:35.209Z,2.10
2022-07-30T02:10:05.887Z,1.33
2022-07-30T02:12:42.952Z,1.55
2022-07-30T02:15:31.352Z,1.35
2022-07-30T02:18:07.874Z,1.42
2022-07-30T02:20:35.605Z,1.70
2022-07-30T02:23:07.495Z,1.52
2022-07-30T02:25:38.557Z,1.52
2022-07-30T02:28:10.060Z,1.95
2022-07-30T02:30:40.431Z,1.90
2022-07-30T02:33:13.071Z,1.77
2022-07-30T02:35:41.202Z,2.08
2022-07-30T02:38:11.930Z,1.60
2022-07-30T02:40:41.950Z,1.80
2022-07-30T02:43:09.124Z,1.58
2022-07-30T02:45:38.035Z,1.77
2022-07-30T02:48:08.953Z,1.83
2022-07-30T02:50:39.502Z,2.17
2022-07-30T02:53:10.861Z,1.83
2022-07-30T02:55:39.826Z,2.20
2022-07-30T02:58:07.408Z,1.88
2022-07-30T03:00:35.561Z,1.85
2022-07-30T03:03:06.056Z,2.30
2022-07-30T03:05:33.573Z,1.67
2022-07-30T03:08:01.622Z,2.42
2022-07-30T03:10:29.180Z,2.20
2022-07-30T03:12:58.368Z,2.13
2022-07-30T03:15:26.833Z,2.10
2022-07-30T03:22:55.064Z,1.85
2022-07-30T03:25:27.328Z,1.67
2022-07-30T03:27:55.660Z,2.00
2022-07-30T03:30:23.917Z,2.38
2022-07-30T03:32:53.366Z,2.25
2022-07-30T03:35:22.070Z,2.38
2022-07-30T03:37:49.535Z,2.67
2022-07-30T03:40:17.896Z,2.42
2022-07-30T03:42:47.914Z,2.75
2022-07-30T03:45:19.121Z,2.95
2022-07-30T03:47:46.529Z,3.55
2022-07-30T03:50:14.193Z,2.80
2022-07-30T03:52:42.148Z,2.95
2022-07-30T03:55:13.683Z,2.55
2022-07-30T03:57:49.691Z,2.30
2022-07-30T04:00:18.206Z,3.13
2022-07-30T04:02:50.293Z,2.88
2022-07-30T04:05:17.194Z,3.13
2022-07-30T04:07:47.017Z,3.55
2022-07-30T04:10:16.869Z,3.92
2022-07-30T04:12:58.496Z,4.45
2022-07-30T04:16:36.999Z,4.00
2022-07-30T04:18:15.604Z,4.43
2022-07-30T04:20:46.087Z,3.17
2022-07-30T04:23:13.243Z,3.45
2022-07-30T04:25:43.671Z,3.78
2022-07-30T04:28:11.880Z,2.58
2022-07-30T04:30:38.821Z,3.22
2022-07-30T04:33:05.766Z,3.40
2022-07-30T04:35:51.408Z,3.40
2022-07-30T04:38:36.653Z,3.35
2022-07-30T04:41:03.589Z,3.38
2022-07-30T04:43:43.470Z,2.85
2022-07-30T04:46:10.242Z,3.00
2022-07-30T04:48:36.964Z,3.00
2022-07-30T04:51:26.487Z,3.70
2022-07-30T04:53:54.774Z,3.17
2022-07-30T04:56:23.828Z,3.50
2022-07-30T04:58:51.974Z,3.22
2022-07-30T05:01:24.164Z,3.47
2022-07-30T05:04:06.574Z,2.70
2022-07-30T05:06:35.039Z,3.70
2022-07-30T05:09:01.998Z,3.08
2022-07-30T05:11:29.018Z,3.28
2022-07-30T05:13:55.949Z,3.40
2022-07-30T05:16:25.129Z,3.28
2022-07-30T05:18:54.836Z,3.42
2022-07-30T05:21:21.501Z,3.15
2022-07-30T05:23:50.161Z,2.83
2022-07-30T05:26:38.367Z,2.85
2022-07-30T05:29:07.308Z,3.25
2022-07-30T05:31:48.498Z,3.65
2022-07-30T05:34:16.212Z,3.20
2022-07-30T05:36:45.478Z,3.30
2022-07-30T05:39:16.303Z,2.85
2022-07-30T05:41:52.091Z,2.70
2022-07-30T05:44:24.216Z,3.05
2022-07-30T05:46:52.356Z,3.63
2022-07-30T05:49:19.563Z,2.92
2022-07-30T05:51:46.455Z,3.05
2022-07-30T05:54:13.409Z,3.05
2022-07-30T05:56:58.702Z,3.60
2022-07-30T05:59:37.591Z,3.00
2022-07-30T06:02:14.793Z,3.50
2022-07-30T06:04:53.178Z,3.15
2022-07-30T06:07:20.879Z,3.20
2022-07-30T06:09:49.927Z,3.42
2022-07-30T06:12:17.277Z,3.08
2022-07-30T06:14:44.074Z,3.53
2022-07-30T06:17:15.819Z,3.33
2022-07-30T06:20:13.816Z,3.60
2022-07-30T06:22:52.228Z,3.30
2022-07-30T06:25:34.983Z,3.55
2022-07-30T06:28:21.330Z,4.13
2022-07-30T06:30:53.005Z,3.40
2022-07-30T06:33:22.263Z,3.33
2022-07-30T06:35:51.618Z,3.25
2022-07-30T06:38:21.705Z,3.03
2022-07-30T06:41:00.514Z,3.45
2022-07-30T06:43:55.284Z,4.20
2022-07-30T06:46:41.168Z,3.83
2022-07-30T06:49:11.495Z,4.00
2022-07-30T06:51:38.345Z,4.60
2022-07-30T06:54:05.071Z,5.80
2022-07-30T06:56:50.345Z,5.05
2022-07-30T06:59:17.057Z,5.65
2022-07-30T07:01:54.080Z,5.38
2022-07-30T07:04:21.550Z,6.25
2022-07-30T07:06:48.364Z,6.50
2022-07-30T07:09:23.596Z,5.80
2022-07-30T07:12:07.006Z,7.43
2022-07-30T07:14:36.106Z,7.50
2022-07-30T07:17:03.683Z,7.63
2022-07-30T07:20:00.807Z,7.82
2022-07-30T07:22:31.716Z,7.68
2022-07-30T07:24:58.435Z,7.43
2022-07-30T07:27:28.532Z,7.18
2022-07-30T07:30:01.552Z,6.82
2022-07-30T07:32:35.286Z,7.57
2022-07-30T07:35:02.880Z,7.25
2022-07-30T07:37:30.360Z,7.35
2022-07-30T07:40:01.701Z,6.90
2022-07-30T07:42:31.431Z,7.72
2022-07-30T07:44:58.964Z,5.30
2022-07-30T07:47:28.918Z,5.05
2022-07-30T07:50:07.297Z,6.50
2022-07-30T07:52:34.044Z,5.90
2022-07-30T07:55:00.875Z,5.13
2022-07-30T07:57:30.055Z,5.25
2022-07-30T08:00:00.433Z,6.65
2022-07-30T08:02:31.095Z,6.65
2022-07-30T08:05:05.264Z,6.53
2022-07-30T08:07:42.523Z,6.93
2022-07-30T08:10:29.553Z,6.23
2022-07-30T08:13:04.085Z,6.22
2022-07-30T08:15:49.848Z,6.00
2022-07-30T08:18:45.595Z,5.70
2022-07-30T08:21:19.314Z,6.05
2022-07-30T08:23:46.055Z,6.38
2022-07-30T08:26:12.856Z,5.47
2022-07-30T08:28:39.602Z,4.80
2022-07-30T08:31:07.503Z,4.35
2022-07-30T08:33:34.467Z,4.95
2022-07-30T08:36:04.397Z,4.63
2022-07-30T08:38:36.953Z,4.35
2022-07-30T08:41:03.846Z,2.85
2022-07-30T08:43:31.554Z,3.40
2022-07-30T08:45:59.057Z,2.30
2022-07-30T08:48:47.100Z,1.40
2022-07-30T08:51:17.727Z,2.80
2022-07-30T08:54:04.797Z,2.47
2022-07-30T08:56:32.646Z,1.95
2022-07-30T08:59:00.630Z,1.33
2022-07-30T09:01:27.750Z,3.33
2022-07-30T09:03:56.796Z,1.20
2022-07-30T09:06:25.642Z,2.08
2022-07-30T09:08:52.428Z,1.48
2022-07-30T09:11:19.244Z,1.52
2022-07-30T09:13:46.020Z,2.15
2022-07-30T09:16:24.096Z,1.20
2022-07-30T09:18:52.746Z,1.73
2022-07-30T09:21:26.383Z,1.23
2022-07-30T09:24:13.694Z,1.83
2022-07-30T09:27:05.240Z,1.77
2022-07-30T09:29:59.323Z,1.23
2022-07-30T09:32:53.488Z,0.57
2022-07-30T09:35:56.247Z,1.00
2022-07-30T09:38:44.844Z,1.55
2022-07-30T09:41:40.113Z,0.70
2022-07-30T09:44:23.887Z,1.00
2022-07-30T09:46:53.559Z,1.15
2022-07-30T09:49:28.687Z,1.15
2022-07-30T09:51:57.573Z,0.65
2022-07-30T09:54:51.530Z,0.93
2022-07-30T09:57:26.555Z,1.63
2022-07-30T10:00:24.060Z,1.33
2022-07-30T10:03:34.111Z,1.48
2022-07-30T10:06:33.437Z,0.98
2022-07-30T10:09:02.361Z,0.90
2022-07-30T10:14:09.454Z,0.60
2022-07-30T10:16:36.305Z,0.82
2022-07-30T10:19:03.770Z,0.80
2022-07-30T10:21:57.354Z,1.02
2022-07-30T10:24:46.048Z,0.98
2022-07-30T10:27:32.256Z,1.02
2022-07-30T10:30:28.098Z,0.82
2022-07-30T10:32:58.261Z,0.93
2022-07-30T10:35:31.114Z,0.85
2022-07-30T10:38:09.357Z,0.85
2022-07-30T10:40:58.672Z,0.80
2022-07-30T10:43:55.156Z,0.40
2022-07-30T10:46:27.077Z,0.55
2022-07-30T10:48:55.602Z,0.45
2022-07-30T10:51:43.638Z,0.40
2022-07-30T10:54:39.784Z,0.20
2022-07-30T10:57:11.650Z,0.40
2022-07-30T10:59:58.667Z,0.35
2022-07-30T11:02:34.850Z,0.57
2022-07-30T11:05:18.616Z,0.30
2022-07-30T11:07:54.543Z,0.30
2022-07-30T11:10:36.409Z,1.00
2022-07-30T11:13:04.065Z,0.70
2022-07-30T11:15:55.779Z,0.60
2022-07-30T11:18:26.835Z,0.22
2022-07-30T11:21:16.657Z,0.35
2022-07-30T11:23:45.811Z,1.10
2022-07-30T11:26:43.762Z,0.60
2022-07-30T11:29:36.183Z,0.20
2022-07-30T11:32:28.235Z,0.20
2022-07-30T11:38:04.976Z,0.43
2022-07-30T11:40:55.138Z,0.88
2022-07-30T11:43:35.167Z,1.40
2022-07-30T11:46:16.291Z,0.65
2022-07-30T11:49:08.355Z,0.50
2022-07-30T11:51:42.880Z,0.43
2022-07-30T11:54:12.829Z,0.45
2022-07-30T11:56:54.402Z,0.10
2022-07-30T11:59:21.183Z,0.45
2022-07-30T12:01:53.008Z,0.38
2022-07-30T12:04:20.130Z,0.40
2022-07-30T12:06:47.930Z,0.50
2022-07-30T12:09:28.718Z,0.50
2022-07-30T12:11:57.268Z,0.20
2022-07-30T12:14:24.428Z,1.65
2022-07-30T12:16:53.528Z,0.88
2022-07-30T12:19:20.449Z,0.90
2022-07-30T12:21:50.907Z,1.35
2022-07-30T12:24:25.307Z,0.50
2022-07-30T12:26:52.081Z,0.40
2022-07-30T12:29:18.952Z,0.35
2022-07-30T12:31:46.231Z,0.43
2022-07-30T12:34:23.946Z,0.50
2022-07-30T12:36:50.644Z,0.20
2022-07-30T12:39:22.848Z,0.50
2022-07-30T12:41:51.403Z,0.30
2022-07-30T12:44:37.732Z,0.20
2022-07-30T12:47:06.533Z,0.77
2022-07-30T12:49:37.817Z,0.30
2022-07-30T12:52:48.379Z,1.38
2022-07-30T12:55:15.238Z,0.65
2022-07-30T12:58:08.424Z,0.25
2022-07-30T13:00:45.047Z,0.32
2022-07-30T13:03:23.442Z,0.30
2022-07-30T13:05:55.158Z,0.30
2022-07-30T13:08:53.405Z,0.50
2022-07-30T13:11:23.108Z,0.50
2022-07-30T13:13:51.230Z,0.17
2022-07-30T13:16:19.365Z,0.30
2022-07-30T13:18:46.638Z,0.20
2022-07-30T13:21:13.868Z,0.30
2022-07-30T13:23:42.191Z,0.25
2022-07-30T13:26:09.891Z,0.22
2022-07-30T13:28:36.760Z,0.63
2022-07-30T13:31:04.031Z,0.45
2022-07-30T13:33:31.075Z,0.25
2022-07-30T13:35:57.816Z,0.30
2022-07-30T13:38:24.611Z,0.40
2022-07-30T13:40:53.114Z,0.28
2022-07-30T13:43:20.270Z,0.13
2022-07-30T13:45:47.396Z,0.43
2022-07-30T13:48:14.410Z,0.38
2022-07-30T13:50:41.826Z,0.47
2022-07-30T13:53:09.070Z,0.85
2022-07-30T13:55:37.347Z,0.20
2022-07-30T13:58:04.614Z,0.28
2022-07-30T14:00:34.242Z,0.28
2022-07-30T14:03:02.663Z,0.10
2022-07-30T14:05:29.617Z,0.20
2022-07-30T14:07:57.159Z,0.08
2022-07-30T14:10:24.244Z,0.10
2022-07-30T14:12:54.958Z,0.20
2022-07-30T14:15:22.681Z,0.10
2022-07-30T14:17:56.577Z,0.20
2022-07-30T14:20:24.092Z,0.20
2022-07-30T14:22:50.829Z,0.30
2022-07-30T14:25:17.647Z,0.20
2022-07-30T14:27:44.995Z,0.32
2022-07-30T14:30:14.924Z,0.20
2022-07-30T14:32:42.148Z,0.98
2022-07-30T14:35:10.528Z,0.35
2022-07-30T14:37:38.232Z,0.10
2022-07-30T14:40:06.641Z,0.30
2022-07-30T14:42:33.561Z,0.13
2022-07-30T14:45:00.305Z,0.00
2022-07-30T14:47:27.004Z,0.10
2022-07-30T14:49:54.287Z,0.20
2022-07-30T14:52:21.019Z,0.20
2022-07-30T14:54:47.643Z,0.10
2022-07-30T14:57:14.340Z,0.00
2022-07-30T14:59:40.931Z,0.10
2022-07-30T15:02:10.901Z,0.15
2022-07-30T15:04:37.691Z,0.00
2022-07-30T15:07:04.438Z,0.10
2022-07-30T15:12:21.737Z,0.10
2022-07-30T15:14:49.866Z,0.10
2022-07-30T15:17:16.592Z,0.05
2022-07-30T15:19:50.090Z,0.20
2022-07-30T15:22:21.099Z,0.10
2022-07-30T15:24:48.860Z,0.00
2022-07-30T15:27:15.658Z,0.10
2022-07-30T15:29:42.787Z,0.20
2022-07-30T15:32:09.475Z,0.10
2022-07-30T15:34:36.157Z,0.13
2022-07-30T15:37:04.152Z,0.10
2022-07-30T15:39:33.434Z,0.00
2022-07-30T15:42:01.794Z,0.00
2022-07-30T15:44:29.156Z,0.10
2022-07-30T15:46:55.896Z,0.10
2022-07-30T15:49:22.835Z,0.20
2022-07-30T15:51:50.438Z,0.73
2022-07-30T15:54:22.461Z,0.57
2022-07-30T15:56:51.334Z,0.10
2022-07-30T15:59:18.456Z,0.57
2022-07-30T16:01:45.326Z,0.30
2022-07-30T16:04:19.637Z,0.50
2022-07-30T16:06:47.978Z,0.10
2022-07-30T16:09:16.051Z,0.10
2022-07-30T16:11:43.016Z,0.20
2022-07-30T16:14:10.395Z,0.10
2022-07-30T16:16:37.572Z,0.17
2022-07-30T16:19:04.412Z,0.30
2022-07-30T16:21:31.136Z,0.20
2022-07-30T16:23:57.810Z,0.25
2022-07-30T16:26:24.532Z,0.20
2022-07-30T16:28:51.504Z,0.10
2022-07-30T16:31:18.126Z,0.10
2022-07-30T16:33:45.105Z,0.08
2022-07-30T16:36:14.277Z,0.30
2022-07-30T16:38:41.296Z,0.20
2022-07-30T16:41:13.217Z,0.40
2022-07-30T16:43:40.742Z,0.40
2022-07-30T16:46:07.493Z,0.73
2022-07-30T16:48:34.227Z,0.50
2022-07-30T16:51:00.945Z,1.30
2022-07-30T16:53:28.431Z,1.20
2022-07-30T16:55:57.020Z,1.80
2022-07-30T16:58:30.739Z,0.90
2022-07-30T17:00:58.159Z,1.67
2022-07-30T17:03:25.504Z,0.90
2022-07-30T17:05:52.493Z,0.50
2022-07-30T17:08:19.475Z,0.25
2022-07-30T17:10:52.503Z,0.95
2022-07-30T17:13:19.471Z,0.80
2022-07-30T17:15:46.966Z,1.60
2022-07-30T17:18:14.015Z,3.72
2022-07-30T17:20:40.800Z,3.47
2022-07-30T17:23:07.797Z,1.58
2022-07-30T17:25:34.456Z,1.63
2022-07-30T17:28:01.804Z,1.75
2022-07-30T17:30:29.471Z,1.67
2022-07-30T17:32:56.453Z,1.83
2022-07-30T17:35:24.667Z,1.75
2022-07-30T17:37:51.705Z,0.73
2022-07-30T17:40:28.739Z,0.30
2022-07-30T17:45:33.115Z,0.98
2022-07-30T17:48:01.631Z,1.30
2022-07-30T17:50:29.650Z,1.00
2022-07-30T17:52:56.484Z,0.98
2022-07-30T17:55:23.397Z,0.45
2022-07-30T17:57:50.039Z,0.55
2022-07-30T18:00:16.940Z,0.85
2022-07-30T18:02:43.615Z,0.63
2022-07-30T18:05:10.992Z,0.70
2022-07-30T18:07:37.690Z,0.57
2022-07-30T18:10:04.694Z,0.60
2022-07-30T18:12:31.467Z,0.50
2022-07-30T18:14:59.119Z,0.40
2022-07-30T18:17:26.270Z,0.65
2022-07-30T18:19:53.473Z,1.70
2022-07-30T18:22:29.567Z,0.50
2022-07-30T18:24:57.358Z,0.70
2022-07-30T18:27:24.067Z,1.02
2022-07-30T18:29:50.748Z,0.75
2022-07-30T18:32:17.538Z,0.68
2022-07-30T18:34:44.260Z,0.40
2022-07-30T18:37:10.979Z,0.55
2022-07-30T18:39:38.947Z,1.00
2022-07-30T18:42:06.440Z,0.30
2022-07-30T18:44:33.580Z,0.80
2022-07-30T18:47:00.534Z,1.17
2022-07-30T18:49:36.728Z,0.68
2022-07-30T18:52:05.604Z,0.50
2022-07-30T18:54:32.545Z,0.55
2022-07-30T18:56:59.231Z,0.20
2022-07-30T18:59:25.885Z,0.50
2022-07-30T19:01:52.585Z,0.30
2022-07-30T19:04:19.440Z,0.38
2022-07-30T19:06:46.465Z,0.80
2022-07-30T19:09:17.689Z,1.13
2022-07-30T19:11:47.910Z,0.40
2022-07-30T19:14:14.884Z,0.50
2022-07-30T19:16:42.912Z,0.50
2022-07-30T19:19:10.361Z,0.50
2022-07-30T19:21:37.072Z,0.60
2022-07-30T19:24:04.919Z,0.38
2022-07-30T19:26:31.710Z,0.63
2022-07-30T19:28:58.676Z,1.00
2022-07-30T19:31:26.563Z,1.70
2022-07-30T19:33:53.338Z,1.20
2022-07-30T19:36:22.791Z,0.50
2022-07-30T19:38:50.140Z,0.50
2022-07-30T19:41:16.999Z,0.35
2022-07-30T19:43:57.828Z,0.70
2022-07-30T19:46:25.167Z,0.70
2022-07-30T19:48:52.034Z,0.85
2022-07-30T19:51:20.444Z,2.03
2022-07-30T19:53:48.038Z,0.75
2022-07-30T19:56:14.907Z,0.52
2022-07-30T19:58:41.854Z,0.70
2022-07-30T20:01:14.399Z,0.45
2022-07-30T20:03:41.884Z,0.63
2022-07-30T20:06:15.377Z,0.95
2022-07-30T20:08:44.800Z,0.57
2022-07-30T20:11:20.924Z,1.10
2022-07-30T20:13:59.162Z,0.82
2022-07-30T20:16:26.071Z,0.50
2022-07-30T20:18:54.549Z,1.38
2022-07-30T20:21:21.254Z,1.08
2022-07-30T20:24:08.162Z,1.10
2022-07-30T20:26:35.763Z,0.93
2022-07-30T20:29:02.661Z,0.93
2022-07-30T20:31:36.247Z,1.50
2022-07-30T20:34:04.826Z,0.60
2022-07-30T20:36:43.365Z,1.33
2022-07-30T20:39:13.371Z,0.98
2022-07-30T20:41:45.748Z,1.15
2022-07-30T20:44:23.506Z,0.70
2022-07-30T20:46:52.699Z,1.00
2022-07-30T20:49:24.184Z,1.02
2022-07-30T20:52:00.844Z,0.75
2022-07-30T20:54:28.128Z,1.17
2022-07-30T20:56:56.932Z,1.25
2022-07-30T20:59:27.056Z,0.73
2022-07-30T21:01:55.835Z,0.50
2022-07-30T21:04:25.311Z,0.50
2022-07-30T21:09:49.684Z,0.80
2022-07-30T21:12:19.314Z,1.10
2022-07-30T21:14:59.817Z,3.28
2022-07-30T21:17:26.632Z,2.17
2022-07-30T21:19:55.127Z,1.48
2022-07-30T21:22:22.408Z,1.20
2022-07-30T21:24:50.759Z,1.42
2022-07-30T21:27:19.098Z,1.70
2022-07-30T21:29:45.943Z,1.20
2022-07-30T21:32:13.314Z,1.08
2022-07-30T21:34:42.370Z,0.70
2022-07-30T21:37:09.825Z,0.65
2022-07-30T21:39:39.952Z,1.13
2022-07-30T21:42:10.541Z,1.05
2022-07-30T21:44:38.184Z,1.02
2022-07-30T21:47:10.468Z,1.10
2022-07-30T21:49:39.570Z,1.00
2022-07-30T21:52:08.926Z,1.20
2022-07-30T21:54:48.414Z,1.17
2022-07-30T22:00:14.560Z,0.82
2022-07-30T22:02:53.043Z,1.30
2022-07-30T22:08:07.611Z,0.93
2022-07-30T22:10:37.958Z,0.70
2022-07-30T22:13:08.912Z,0.80
2022-07-30T22:15:36.439Z,0.98
2022-07-30T22:18:04.158Z,1.23
2022-07-30T22:20:31.755Z,0.70
2022-07-30T22:23:00.508Z,1.15
2022-07-30T22:25:39.807Z,1.40
2022-07-30T22:28:12.947Z,1.20
2022-07-30T22:30:41.208Z,1.17
2022-07-30T22:33:19.249Z,1.23
2022-07-30T22:35:49.679Z,1.20
2022-07-30T22:38:19.575Z,1.13
2022-07-30T22:40:46.552Z,1.00
2022-07-30T22:43:15.983Z,1.00
2022-07-30T22:45:47.637Z,0.90
2022-07-30T22:48:16.792Z,1.73
2022-07-30T22:50:43.539Z,1.15
2022-07-30T22:55:58.664Z,1.05
2022-07-30T22:58:26.431Z,0.77
2022-07-30T23:00:53.548Z,0.75
2022-07-30T23:03:21.135Z,0.70
2022-07-30T23:05:55.090Z,1.60
2022-07-30T23:11:10.108Z,0.88
2022-07-30T23:12:30.688Z,1.20
2022-07-30T23:12:30.999Z,1.45
2022-07-30T23:12:32.448Z,1.02
2022-07-30T23:12:33.009Z,0.55
2022-07-30T23:13:38.643Z,1.48
2022-07-30T23:16:06.839Z,1.38
2022-07-30T23:18:35.285Z,1.58
2022-07-30T23:21:03.156Z,1.37
2022-07-30T23:23:33.900Z,1.52
2022-07-30T23:26:01.975Z,1.33
2022-07-30T23:28:28.739Z,1.13
2022-07-30T23:30:55.837Z,1.50
2022-07-30T23:33:22.543Z,1.63
2022-07-30T23:35:49.329Z,1.08
2022-07-30T23:38:16.065Z,0.90
2022-07-30T23:40:42.708Z,1.45
2022-07-30T23:43:09.521Z,1.20
2022-07-30T23:45:36.193Z,1.63
2022-07-30T23:48:03.563Z,1.00
2022-07-30T23:50:34.318Z,1.00
2022-07-30T23:53:01.992Z,0.73
2022-07-30T23:55:30.971Z,1.23
2022-07-30T23:57:58.711Z,1.25
